createdAt,value
2018-01-07T00:00:05.832Z,0.67
2018-01-07T00:03:14.374Z,0.70
2018-01-07T00:06:27.859Z,0.50
2018-01-07T00:09:53.557Z,0.60
2018-01-07T00:13:07.043Z,0.63
2018-01-07T00:16:18.888Z,0.90
2018-01-07T00:19:33.346Z,0.50
2018-01-07T00:22:45.236Z,1.20
2018-01-07T00:26:05.003Z,0.80
2018-01-07T00:29:16.771Z,0.60
2018-01-07T00:32:26.081Z,0.63
2018-01-07T00:35:36.830Z,0.80
2018-01-07T00:38:46.837Z,0.60
2018-01-07T00:41:56.748Z,0.60
2018-01-07T00:45:06.774Z,0.60
2018-01-07T00:48:20.401Z,0.50
2018-01-07T00:51:33.800Z,0.50
2018-01-07T00:54:46.080Z,0.50
2018-01-07T00:57:59.464Z,0.60
2018-01-07T01:01:11.771Z,0.83
2018-01-07T01:04:21.598Z,1.10
2018-01-07T01:07:30.696Z,0.70
2018-01-07T01:10:39.611Z,0.40
2018-01-07T01:13:51.965Z,0.80
2018-01-07T01:17:02.621Z,0.40
2018-01-07T01:20:14.472Z,0.50
2018-01-07T01:23:24.149Z,0.57
2018-01-07T01:26:34.525Z,0.43
2018-01-07T01:29:47.267Z,1.17
2018-01-07T01:32:58.387Z,1.40
2018-01-07T01:36:09.988Z,1.03
2018-01-07T01:39:23.322Z,0.50
2018-01-07T01:42:33.939Z,1.00
2018-01-07T01:45:51.391Z,0.83
2018-01-07T01:49:12.129Z,0.77
2018-01-07T01:52:25.203Z,0.40
2018-01-07T01:55:35.690Z,0.90
2018-01-07T01:58:44.518Z,1.30
2018-01-07T02:01:55.038Z,0.83
2018-01-07T02:05:07.566Z,0.53
2018-01-07T02:08:16.815Z,0.40
2018-01-07T02:11:27.725Z,0.50
2018-01-07T02:14:40.523Z,0.70
2018-01-07T02:17:53.866Z,0.50
2018-01-07T02:21:05.281Z,0.70
2018-01-07T02:24:17.630Z,0.50
2018-01-07T02:30:46.137Z,0.50
2018-01-07T02:33:58.537Z,0.70
2018-01-07T02:37:11.441Z,0.77
2018-01-07T02:40:21.662Z,0.60
2018-01-07T02:43:33.107Z,0.50
2018-01-07T02:46:44.442Z,0.50
2018-01-07T02:49:57.217Z,0.70
2018-01-07T02:53:09.020Z,0.67
2018-01-07T02:56:18.606Z,0.50
2018-01-07T02:59:31.423Z,0.60
2018-01-07T03:02:43.134Z,0.60
2018-01-07T03:05:54.142Z,0.50
2018-01-07T03:09:09.394Z,0.70
2018-01-07T03:12:20.645Z,0.63
2018-01-07T03:15:30.268Z,0.50
2018-01-07T03:18:43.553Z,0.50
2018-01-07T03:21:57.003Z,0.60
2018-01-07T03:25:07.943Z,0.50
2018-01-07T03:28:18.329Z,0.50
2018-01-07T03:31:30.323Z,0.70
2018-01-07T03:34:40.681Z,0.50
2018-01-07T03:37:52.225Z,0.53
2018-01-07T03:41:04.277Z,0.80
2018-01-07T03:44:15.907Z,0.50
2018-01-07T03:47:26.661Z,0.60
2018-01-07T03:50:39.066Z,0.50
2018-01-07T03:53:51.126Z,0.50
2018-01-07T03:57:01.408Z,0.87
2018-01-07T04:00:11.253Z,0.67
2018-01-07T04:03:21.613Z,0.53
2018-01-07T04:06:33.335Z,0.70
2018-01-07T04:09:47.871Z,0.50
2018-01-07T04:12:59.320Z,0.70
2018-01-07T04:16:11.476Z,0.70
2018-01-07T04:19:24.015Z,0.67
2018-01-07T04:22:35.040Z,0.60
2018-01-07T04:25:47.553Z,0.70
2018-01-07T04:28:56.952Z,0.97
2018-01-07T04:32:08.466Z,0.90
2018-01-07T04:35:21.209Z,0.50
2018-01-07T04:38:31.467Z,0.53
2018-01-07T04:41:43.105Z,0.80
2018-01-07T04:44:51.161Z,0.60
2018-01-07T04:48:03.568Z,0.50
2018-01-07T04:51:18.445Z,0.70
2018-01-07T04:54:26.615Z,0.60
2018-01-07T04:57:37.547Z,0.80
2018-01-07T05:00:49.602Z,0.70
2018-01-07T05:03:58.690Z,0.90
2018-01-07T05:07:08.374Z,0.90
2018-01-07T05:10:20.275Z,1.03
2018-01-07T05:13:34.901Z,0.70
2018-01-07T05:16:44.482Z,0.80
2018-01-07T05:19:55.836Z,0.60
2018-01-07T05:23:05.451Z,0.80
2018-01-07T05:26:15.927Z,0.70
2018-01-07T05:29:27.929Z,0.80
2018-01-07T05:32:40.464Z,0.70
2018-01-07T05:35:54.171Z,0.50
2018-01-07T05:39:06.276Z,0.50
2018-01-07T05:42:17.954Z,0.50
2018-01-07T05:45:34.803Z,0.80
2018-01-07T05:48:45.240Z,0.87
2018-01-07T05:51:58.289Z,0.70
2018-01-07T05:55:10.211Z,0.50
2018-01-07T05:58:24.407Z,0.80
2018-01-07T06:01:34.145Z,0.60
2018-01-07T06:04:46.971Z,0.63
2018-01-07T06:07:57.326Z,0.60
2018-01-07T06:11:07.224Z,0.60
2018-01-07T06:14:18.964Z,0.60
2018-01-07T06:17:31.386Z,0.53
2018-01-07T06:20:41.762Z,0.70
2018-01-07T06:23:52.113Z,0.70
2018-01-07T06:27:01.602Z,0.70
2018-01-07T06:30:11.891Z,0.90
2018-01-07T06:33:22.751Z,0.50
2018-01-07T06:36:33.169Z,0.60
2018-01-07T06:39:44.154Z,0.67
2018-01-07T06:42:53.949Z,0.50
2018-01-07T06:46:05.067Z,0.43
2018-01-07T06:49:18.506Z,0.50
2018-01-07T06:52:30.349Z,0.60
2018-01-07T06:55:41.813Z,0.80
2018-01-07T06:58:53.763Z,0.70
2018-01-07T07:02:04.138Z,0.70
2018-01-07T07:05:14.511Z,0.50
2018-01-07T07:08:25.013Z,0.47
2018-01-07T07:11:34.605Z,0.50
2018-01-07T07:14:47.695Z,0.60
2018-01-07T07:18:00.369Z,0.83
2018-01-07T07:21:10.299Z,0.60
2018-01-07T07:24:20.288Z,0.80
2018-01-07T07:27:30.337Z,1.07
2018-01-07T07:30:40.394Z,0.60
2018-01-07T07:33:52.065Z,0.70
2018-01-07T07:37:02.537Z,0.70
2018-01-07T07:40:19.031Z,0.80
2018-01-07T07:43:32.913Z,0.67
2018-01-07T07:46:43.840Z,0.70
2018-01-07T07:49:54.534Z,0.77
2018-01-07T07:53:05.331Z,0.90
2018-01-07T07:56:16.523Z,1.00
2018-01-07T07:59:25.606Z,1.13
2018-01-07T08:02:35.937Z,0.83
2018-01-07T08:05:45.667Z,0.97
2018-01-07T08:08:56.692Z,1.50
2018-01-07T08:12:08.631Z,1.23
2018-01-07T08:15:18.196Z,1.10
2018-01-07T08:18:27.080Z,0.90
2018-01-07T08:21:35.180Z,0.90
2018-01-07T08:24:45.846Z,1.83
2018-01-07T08:27:54.272Z,1.10
2018-01-07T08:31:08.417Z,0.70
2018-01-07T08:34:20.352Z,0.80
2018-01-07T08:37:34.229Z,0.70
2018-01-07T08:40:43.151Z,0.87
2018-01-07T08:43:53.326Z,0.83
2018-01-07T08:50:21.615Z,0.80
2018-01-07T08:53:33.574Z,1.00
2018-01-07T08:56:44.102Z,0.50
2018-01-07T08:59:53.038Z,0.87
2018-01-07T09:03:07.050Z,0.47
2018-01-07T09:06:20.918Z,0.50
2018-01-07T09:09:27.742Z,0.90
2018-01-07T09:12:37.420Z,0.77
2018-01-07T09:15:47.577Z,0.70
2018-01-07T09:18:58.803Z,0.70
2018-01-07T09:22:09.194Z,1.00
2018-01-07T09:25:20.735Z,0.80
2018-01-07T09:28:32.572Z,1.07
2018-01-07T09:31:44.504Z,0.60
2018-01-07T09:34:55.618Z,0.90
2018-01-07T09:38:03.707Z,0.57
2018-01-07T09:41:14.590Z,0.70
2018-01-07T09:44:26.249Z,0.90
2018-01-07T09:47:34.763Z,0.47
2018-01-07T09:50:55.713Z,0.70
2018-01-07T09:54:15.737Z,0.70
2018-01-07T09:57:56.981Z,0.70
2018-01-07T10:01:35.096Z,0.60
2018-01-07T10:04:56.541Z,0.80
2018-01-07T10:08:35.581Z,1.10
2018-01-07T10:12:20.769Z,0.90
2018-01-07T10:15:56.182Z,1.00
2018-01-07T10:22:58.594Z,1.27
2018-01-07T10:26:22.725Z,1.20
2018-01-07T10:29:49.317Z,1.17
2018-01-07T10:33:19.595Z,1.53
2018-01-07T10:36:50.091Z,0.97
2018-01-07T10:40:15.298Z,1.37
2018-01-07T10:43:36.997Z,1.53
2018-01-07T10:50:57.282Z,2.20
2018-01-07T10:54:24.108Z,2.00
2018-01-07T10:57:38.881Z,2.10
2018-01-07T11:01:01.809Z,1.63
2018-01-07T11:04:30.410Z,1.60
2018-01-07T11:07:56.611Z,1.90
2018-01-07T11:15:11.466Z,1.30
2018-01-07T11:18:36.082Z,2.27
2018-01-07T11:22:08.781Z,1.30
2018-01-07T11:25:53.991Z,1.57
2018-01-07T11:29:28.567Z,1.17
2018-01-07T11:33:01.529Z,2.60
2018-01-07T11:36:23.912Z,0.97
2018-01-07T11:39:46.439Z,1.23
2018-01-07T11:43:09.737Z,1.33
2018-01-07T11:46:34.699Z,1.10
2018-01-07T11:50:00.103Z,1.63
2018-01-07T11:53:22.275Z,1.00
2018-01-07T11:56:33.659Z,1.20
2018-01-07T11:59:45.591Z,1.00
2018-01-07T12:02:55.032Z,1.10
2018-01-07T12:06:09.061Z,0.97
2018-01-07T12:09:30.912Z,1.30
2018-01-07T12:16:26.982Z,1.03
2018-01-07T12:19:55.915Z,1.27
2018-01-07T12:23:29.725Z,1.27
2018-01-07T12:27:19.042Z,0.77
2018-01-07T12:31:07.779Z,1.03
2018-01-07T12:34:34.710Z,1.00
2018-01-07T12:38:20.281Z,1.10
2018-01-07T12:41:45.019Z,1.20
2018-01-07T12:45:14.010Z,1.23
2018-01-07T12:48:33.218Z,1.20
2018-01-07T12:51:58.516Z,1.13
2018-01-07T12:55:26.275Z,1.30
2018-01-07T12:58:48.217Z,0.90
2018-01-07T13:02:22.598Z,1.20
2018-01-07T13:05:41.515Z,1.10
2018-01-07T13:08:59.009Z,1.10
2018-01-07T13:12:08.454Z,1.30
2018-01-07T13:15:20.858Z,1.40
2018-01-07T13:18:31.243Z,0.83
2018-01-07T13:21:42.334Z,0.97
2018-01-07T13:24:50.922Z,1.13
2018-01-07T13:28:03.781Z,1.30
2018-01-07T13:31:13.578Z,1.60
2018-01-07T13:38:11.544Z,1.80
2018-01-07T13:41:40.386Z,1.43
2018-01-07T13:45:03.458Z,1.30
2018-01-07T13:48:30.344Z,1.37
2018-01-07T13:51:56.224Z,1.40
2018-01-07T13:55:24.009Z,1.30
2018-01-07T13:58:51.152Z,1.30
2018-01-07T14:02:34.954Z,1.40
2018-01-07T14:06:09.108Z,1.10
2018-01-07T14:13:35.858Z,1.10
2018-01-07T14:17:06.866Z,0.97
2018-01-07T14:20:31.209Z,1.40
2018-01-07T14:23:59.654Z,0.90
2018-01-07T14:27:24.791Z,1.40
2018-01-07T14:31:08.288Z,1.30
2018-01-07T14:34:50.886Z,1.50
2018-01-07T14:38:15.728Z,1.40
2018-01-07T14:41:56.612Z,1.00
2018-01-07T14:45:20.171Z,1.27
2018-01-07T14:48:49.917Z,1.30
2018-01-07T14:52:26.386Z,0.80
2018-01-07T14:55:48.047Z,1.17
2018-01-07T14:59:14.847Z,0.90
2018-01-07T15:02:34.276Z,1.23
2018-01-07T15:06:00.182Z,1.57
2018-01-07T15:09:30.291Z,1.43
2018-01-07T15:12:59.018Z,1.43
2018-01-07T15:16:19.510Z,2.07
2018-01-07T15:20:00.234Z,3.17
2018-01-07T15:23:26.128Z,1.13
2018-01-07T15:30:26.840Z,1.80
2018-01-07T15:34:04.691Z,1.80
2018-01-07T15:37:20.069Z,1.33
2018-01-07T15:40:26.979Z,2.20
2018-01-07T15:43:36.865Z,1.60
2018-01-07T15:46:44.711Z,1.80
2018-01-07T15:49:53.671Z,1.97
2018-01-07T15:53:05.112Z,2.00
2018-01-07T15:56:14.038Z,2.00
2018-01-07T15:59:24.326Z,2.10
2018-01-07T16:06:07.684Z,1.87
2018-01-07T16:09:45.125Z,2.13
2018-01-07T16:13:02.717Z,2.17
2018-01-07T16:16:21.709Z,1.87
2018-01-07T16:19:43.149Z,1.87
2018-01-07T16:26:55.668Z,2.20
2018-01-07T16:30:20.754Z,1.53
2018-01-07T16:33:50.659Z,1.97
2018-01-07T16:37:17.227Z,2.00
2018-01-07T16:40:57.012Z,2.30
2018-01-07T16:44:25.565Z,2.27
2018-01-07T16:48:00.458Z,2.07
2018-01-07T16:51:23.876Z,2.40
2018-01-07T16:54:48.008Z,2.20
2018-01-07T16:58:10.760Z,2.17
2018-01-07T17:01:48.314Z,2.20
2018-01-07T17:05:18.150Z,2.60
2018-01-07T17:08:31.239Z,2.77
2018-01-07T17:11:49.710Z,3.10
2018-01-07T17:15:18.806Z,2.70
2018-01-07T17:19:00.436Z,3.33
2018-01-07T17:22:30.214Z,3.50
2018-01-07T17:25:56.709Z,2.80
2018-01-07T17:29:21.709Z,2.90
2018-01-07T17:32:40.518Z,5.37
2018-01-07T17:36:07.348Z,3.37
2018-01-07T17:39:43.402Z,3.07
2018-01-07T17:43:15.543Z,3.17
2018-01-07T17:46:29.845Z,3.53
2018-01-07T17:49:51.009Z,3.33
2018-01-07T17:53:13.565Z,3.80
2018-01-07T17:56:29.881Z,3.67
2018-01-07T17:59:42.853Z,3.33
2018-01-07T18:02:53.039Z,3.63
2018-01-07T18:06:12.112Z,3.07
2018-01-07T18:09:21.033Z,2.67
2018-01-07T18:12:30.099Z,3.40
2018-01-07T18:15:44.499Z,3.20
2018-01-07T18:19:07.951Z,2.90
2018-01-07T18:22:20.508Z,3.13
2018-01-07T18:25:34.069Z,3.70
2018-01-07T18:29:03.322Z,3.07
2018-01-07T18:32:19.772Z,3.63
2018-01-07T18:35:40.781Z,3.20
2018-01-07T18:39:04.366Z,2.90
2018-01-07T18:42:14.980Z,3.87
2018-01-07T18:45:35.009Z,2.70
2018-01-07T18:49:04.500Z,3.07
2018-01-07T18:52:40.080Z,2.60
2018-01-07T18:56:08.826Z,2.90
2018-01-07T18:59:41.372Z,2.97
2018-01-07T19:03:04.886Z,2.20
2018-01-07T19:06:47.277Z,3.20
2018-01-07T19:10:11.435Z,2.67
2018-01-07T19:13:27.748Z,2.57
2018-01-07T19:20:22.975Z,2.30
2018-01-07T19:23:41.748Z,2.67
2018-01-07T19:27:04.624Z,2.20
2018-01-07T19:30:46.311Z,2.30
2018-01-07T19:34:12.535Z,2.67
2018-01-07T19:37:40.034Z,2.73
2018-01-07T19:41:06.649Z,2.07
2018-01-07T19:44:49.223Z,2.73
2018-01-07T19:48:08.053Z,2.67
2018-01-07T19:51:26.256Z,2.60
2018-01-07T19:54:48.927Z,1.80
2018-01-07T20:01:55.668Z,1.50
2018-01-07T20:05:32.883Z,2.27
2018-01-07T20:08:52.876Z,2.00
2018-01-07T20:12:19.375Z,1.90
2018-01-07T20:16:00.927Z,2.07
2018-01-07T20:19:28.624Z,1.60
2018-01-07T20:22:52.782Z,1.63
2018-01-07T20:26:23.760Z,2.13
2018-01-07T20:29:39.454Z,1.73
2018-01-07T20:32:47.513Z,1.50
2018-01-07T20:35:57.693Z,1.83
2018-01-07T20:39:21.300Z,1.53
2018-01-07T20:42:35.638Z,2.00
2018-01-07T20:45:53.454Z,1.80
2018-01-07T20:49:03.220Z,2.00
2018-01-07T20:52:16.900Z,2.00
2018-01-07T20:55:38.714Z,1.90
2018-01-07T20:58:53.258Z,2.50
2018-01-07T21:02:10.036Z,2.03
2018-01-07T21:05:28.144Z,1.80
2018-01-07T21:08:37.395Z,3.20
2018-01-07T21:12:15.222Z,2.10
2018-01-07T21:15:27.522Z,2.03
2018-01-07T21:18:37.180Z,2.00
2018-01-07T21:21:51.030Z,2.10
2018-01-07T21:25:05.406Z,2.00
2018-01-07T21:28:18.086Z,2.07
2018-01-07T21:31:29.306Z,2.43
2018-01-07T21:34:41.907Z,2.20
2018-01-07T21:37:51.804Z,2.13
2018-01-07T21:41:06.840Z,2.10
2018-01-07T21:44:17.683Z,2.63
2018-01-07T21:47:27.986Z,2.67
2018-01-07T21:50:36.539Z,2.60
2018-01-07T21:53:49.325Z,2.50
2018-01-07T21:57:00.714Z,2.97
2018-01-07T22:00:39.237Z,2.80
2018-01-07T22:03:55.083Z,2.40
2018-01-07T22:07:10.436Z,2.30
2018-01-07T22:10:19.082Z,2.67
2018-01-07T22:13:29.486Z,2.50
2018-01-07T22:16:41.712Z,2.67
2018-01-07T22:19:52.363Z,2.10
2018-01-07T22:23:06.759Z,3.27
2018-01-07T22:26:17.735Z,2.70
2018-01-07T22:29:29.034Z,3.00
2018-01-07T22:32:39.077Z,2.57
2018-01-07T22:35:50.334Z,2.83
2018-01-07T22:39:02.594Z,2.83
2018-01-07T22:42:13.610Z,2.20
2018-01-07T22:45:23.852Z,2.33
2018-01-07T22:48:48.796Z,2.93
2018-01-07T22:52:07.110Z,2.10
2018-01-07T22:55:20.265Z,2.97
2018-01-07T22:58:39.911Z,2.23
2018-01-07T23:01:49.385Z,2.90
2018-01-07T23:05:00.967Z,2.50
2018-01-07T23:08:10.652Z,2.70
2018-01-07T23:11:22.912Z,2.87
2018-01-07T23:14:33.097Z,2.20
2018-01-07T23:17:43.034Z,2.30
2018-01-07T23:20:53.882Z,2.23
2018-01-07T23:24:03.915Z,2.13
2018-01-07T23:27:17.890Z,2.03
2018-01-07T23:30:31.653Z,2.50
2018-01-07T23:33:57.911Z,2.03
2018-01-07T23:37:08.241Z,2.17
2018-01-07T23:40:20.739Z,2.07
2018-01-07T23:43:32.253Z,2.50
2018-01-07T23:46:44.390Z,2.50
2018-01-07T23:50:02.770Z,2.30
2018-01-07T23:53:18.268Z,2.47
2018-01-07T23:56:32.487Z,2.30
2018-01-07T23:59:45.738Z,2.20
